Time;durP1;ratioP1;P1;durP2;ratioP2;P2;SDS_P1;SDS_P2;PMS_P1;PMS_P2;Temp;Humidity;BMP_temperature;BMP_pressure;BME280_temperature;BME280_humidity;BME280_pressure;Samples;Min_cycle;Max_cycle;Signal;HPM_P1;HPM_P2
2021/01/12 00:00:24;;;;;;;11.77;4.30;;;;;;;;;;4365117;32;20154;-78
2021/01/12 00:05:56;;;;;;;11.87;3.50;;;;;;;;;;4369633;32;20241;-78
2021/01/12 00:08:22;;;;;;;9.80;3.23;;;;;;;;;;4376772;32;20618;-77
2021/01/12 00:13:33;;;;;;;10.57;3.57;;;;;;;;;;4382153;32;20157;-78
2021/01/12 00:16:01;;;;;;;10.20;3.30;;;;;;;;;;4377179;32;20217;-77
2021/01/12 00:18:36;;;;;;;16.03;4.07;;;;;;;;;;4376673;32;20220;-77
2021/01/12 00:21:02;;;;;;;14.40;3.87;;;;;;;;;;4377212;32;20217;-76
2021/01/12 00:23:30;;;;;;;11.43;4.00;;;;;;;;;;4376538;32;20224;-77
2021/01/12 00:26:01;;;;;;;10.50;3.60;;;;;;;;;;4376661;32;20188;-76
2021/01/12 00:29:33;;;;;;;13.73;4.20;;;;;;;;;;4376532;32;20154;-76
2021/01/12 00:31:42;;;;;;;9.50;3.53;;;;;;;;;;4382462;32;20162;-76
2021/01/12 00:34:19;;;;;;;12.33;3.20;;;;;;;;;;4390676;32;20242;-77
2021/01/12 00:36:46;;;;;;;14.23;4.20;;;;;;;;;;4376704;32;20605;-76
2021/01/12 00:39:11;;;;;;;14.70;4.40;;;;;;;;;;4376419;32;20151;-77
2021/01/12 00:41:56;;;;;;;11.03;3.70;;;;;;;;;;4376449;32;20150;-77
2021/01/12 00:44:33;;;;;;;11.97;4.23;;;;;;;;;;4376262;32;20158;-77
2021/01/12 00:46:59;;;;;;;10.83;3.87;;;;;;;;;;4376579;32;20153;-77
2021/01/12 00:49:24;;;;;;;13.73;4.50;;;;;;;;;;4376873;32;20598;-77
2021/01/12 00:51:57;;;;;;;12.80;4.20;;;;;;;;;;4390051;32;20488;-76
2021/01/12 00:54:25;;;;;;;14.57;4.00;;;;;;;;;;4376700;32;20196;-77
2021/01/12 00:56:51;;;;;;;10.80;3.97;;;;;;;;;;4376203;32;20150;-77
2021/01/12 00:59:16;;;;;;;10.07;3.37;;;;;;;;;;4376563;32;20197;-77
2021/01/12 01:02:11;;;;;;;13.07;3.85;;;;;;;;;;4376174;32;20270;-77
2021/01/12 01:04:37;;;;;;;15.32;4.30;;;;;;;;;;4370495;32;20166;-77
2021/01/12 01:07:05;;;;;;;16.25;4.47;;;;;;;;;;4376650;32;20150;-77
2021/01/12 01:09:35;;;;;;;18.07;4.53;;;;;;;;;;4376093;32;20668;-77
2021/01/12 01:15:10;;;;;;;19.47;4.77;;;;;;;;;;4390470;32;20169;-77
2021/01/12 01:17:35;;;;;;;16.93;4.60;;;;;;;;;;4379661;32;20153;-76
2021/01/12 01:20:01;;;;;;;16.92;4.97;;;;;;;;;;4379611;32;20173;-76
2021/01/12 01:22:26;;;;;;;15.03;4.83;;;;;;;;;;4378918;32;20151;-77
2021/01/12 01:25:08;;;;;;;19.00;4.75;;;;;;;;;;4376533;32;20201;-76
2021/01/12 01:27:33;;;;;;;18.23;5.30;;;;;;;;;;4378508;32;20158;-76
2021/01/12 01:33:00;;;;;;;17.37;4.80;;;;;;;;;;4354309;32;20559;-77
2021/01/12 01:35:55;;;;;;;15.55;4.72;;;;;;;;;;4393462;32;20153;-76
2021/01/12 01:39:01;;;;;;;;;;;;;;;;;;;;;
2021/01/12 01:41:30;;;;;;;19.27;5.40;;;;;;;;;;4390629;32;20150;-77
2021/01/12 01:44:03;;;;;;;16.90;5.37;;;;;;;;;;4378744;32;20182;-76
2021/01/12 01:46:56;;;;;;;18.97;5.43;;;;;;;;;;4378527;32;20174;-76
2021/01/12 01:49:20;;;;;;;23.05;6.15;;;;;;;;;;4391335;32;20166;-77
2021/01/12 01:51:49;;;;;;;23.15;4.70;;;;;;;;;;4378813;32;20178;-76
2021/01/12 01:54:17;;;;;;;22.37;4.30;;;;;;;;;;4378524;32;20194;-75
2021/01/12 01:56:43;;;;;;;22.23;4.37;;;;;;;;;;4378521;32;20170;-75
2021/01/12 01:59:20;;;;;;;18.33;3.92;;;;;;;;;;4378603;32;20196;-76
2021/01/12 02:01:58;;;;;;;;;;;;;;;;;;;;;
2021/01/12 02:04:34;;;;;;;19.02;3.58;;;;;;;;;;4359000;33;20201;-77
2021/01/12 02:07:21;;;;;;;10.48;3.28;;;;;;;;;;4352185;32;20496;-77
2021/01/12 02:10:01;;;;;;;;;;;;;;;;;;;;;
2021/01/12 02:13:01;;;;;;;22.43;3.97;;;;;;;;;;4392660;32;20170;-77
2021/01/12 02:15:27;;;;;;;19.52;4.20;;;;;;;;;;4370614;32;20249;-75
2021/01/12 02:17:56;;;;;;;16.30;3.60;;;;;;;;;;4378371;32;20154;-77
2021/01/12 02:20:52;;;;;;;12.90;3.62;;;;;;;;;;4378100;32;20579;-77
2021/01/12 02:23:39;;;;;;;14.20;3.28;;;;;;;;;;4351745;32;20509;-76
2021/01/12 02:29:54;;;;;;;;;;;;;;;;;;;;;
2021/01/12 02:32:31;;;;;;;13.82;3.22;;;;;;;;;;4371801;32;20185;-76
2021/01/12 02:35:29;;;;;;;11.48;3.20;;;;;;;;;;4375057;32;20163;-76
2021/01/12 02:38:13;;;;;;;8.82;3.25;;;;;;;;;;4375797;32;20503;-77
2021/01/12 02:40:52;;;;;;;12.35;3.00;;;;;;;;;;4363582;32;20154;-76
2021/01/12 02:43:24;;;;;;;11.73;3.12;;;;;;;;;;4362242;32;20288;-76
2021/01/12 02:45:50;;;;;;;14.02;3.35;;;;;;;;;;4362826;32;20182;-76
2021/01/12 02:48:29;;;;;;;13.80;3.83;;;;;;;;;;4362976;32;20159;-77
2021/01/12 02:51:40;;;;;;;11.98;3.40;;;;;;;;;;4375135;32;20619;-76
2021/01/12 02:54:36;;;;;;;;;;;;;;;;;;;;;
2021/01/12 02:57:01;;;;;;;12.13;3.60;;;;;;;;;;4365178;32;20498;-76
2021/01/12 02:59:34;;;;;;;14.98;3.70;;;;;;;;;;4362369;32;20150;-76
2021/01/12 03:02:02;;;;;;;13.40;3.47;;;;;;;;;;4363084;32;20146;-76
2021/01/12 03:04:32;;;;;;;11.10;3.75;;;;;;;;;;4362846;32;20585;-76
2021/01/12 03:06:57;;;;;;;13.62;3.78;;;;;;;;;;4363891;32;20174;-75
2021/01/12 03:09:25;;;;;;;8.13;3.30;;;;;;;;;;4363203;32;20201;-75
2021/01/12 03:11:51;;;;;;;15.75;3.60;;;;;;;;;;4362966;32;20590;-75
2021/01/12 03:14:17;;;;;;;13.13;3.87;;;;;;;;;;4362758;32;20600;-76
2021/01/12 03:16:44;;;;;;;11.63;3.45;;;;;;;;;;4362639;32;20151;-75
2021/01/12 03:19:12;;;;;;;13.53;3.47;;;;;;;;;;4362896;32;20151;-75
2021/01/12 03:21:37;;;;;;;9.70;3.53;;;;;;;;;;4362326;32;20615;-75
2021/01/12 03:24:03;;;;;;;15.75;4.07;;;;;;;;;;4362428;32;20193;-75
2021/01/12 03:26:28;;;;;;;17.95;3.47;;;;;;;;;;4362940;32;20229;-75
2021/01/12 03:28:53;;;;;;;16.73;3.30;;;;;;;;;;4376510;32;20167;-75
2021/01/12 03:31:19;;;;;;;12.40;3.20;;;;;;;;;;4362316;32;20177;-75
2021/01/12 03:33:44;;;;;;;13.67;3.80;;;;;;;;;;4362551;32;20189;-76
2021/01/12 03:36:15;;;;;;;12.63;3.50;;;;;;;;;;4350538;32;20185;-76
2021/01/12 03:38:52;;;;;;;13.40;3.73;;;;;;;;;;4362025;32;20226;-77
2021/01/12 03:41:17;;;;;;;17.07;4.10;;;;;;;;;;4362869;32;20150;-77
2021/01/12 03:43:45;;;;;;;13.57;3.20;;;;;;;;;;4362108;32;20241;-76
2021/01/12 03:46:19;;;;;;;15.53;3.43;;;;;;;;;;4374345;32;20159;-76
2021/01/12 03:48:48;;;;;;;11.07;3.42;;;;;;;;;;4361966;32;20218;-76
2021/01/12 03:51:16;;;;;;;12.03;3.27;;;;;;;;;;4362178;32;20646;-77
2021/01/12 03:53:53;;;;;;;15.48;3.50;;;;;;;;;;4361823;32;20162;-76
2021/01/12 03:56:18;;;;;;;24.58;3.85;;;;;;;;;;4362037;32;20158;-76
2021/01/12 03:58:44;;;;;;;13.40;4.13;;;;;;;;;;4374546;32;20244;-76
2021/01/12 04:01:10;;;;;;;19.23;4.00;;;;;;;;;;4361955;32;20159;-76
2021/01/12 04:03:39;;;;;;;18.90;4.13;;;;;;;;;;4361788;32;20185;-76
2021/01/12 04:06:09;;;;;;;17.40;4.20;;;;;;;;;;4362229;32;20212;-76
2021/01/12 04:08:34;;;;;;;14.13;3.95;;;;;;;;;;4362319;32;20190;-76
2021/01/12 04:11:11;;;;;;;17.63;4.47;;;;;;;;;;4376355;32;20173;-76
2021/01/12 04:13:40;;;;;;;16.17;4.37;;;;;;;;;;4361919;32;20225;-75
2021/01/12 04:16:38;;;;;;;13.30;3.90;;;;;;;;;;4361628;32;20155;-76
2021/01/12 04:19:15;;;;;;;13.90;3.77;;;;;;;;;;4359567;32;20182;-76
2021/01/12 04:21:57;;;;;;;22.23;4.07;;;;;;;;;;4361527;32;20158;-76
2021/01/12 04:24:38;;;;;;;23.17;4.70;;;;;;;;;;4379731;32;20185;-76
2021/01/12 04:27:05;;;;;;;18.60;4.73;;;;;;;;;;4377668;32;20162;-76
2021/01/12 04:29:31;;;;;;;10.52;3.25;;;;;;;;;;4376328;32;20158;-76
2021/01/12 04:32:01;;;;;;;21.85;3.80;;;;;;;;;;4376398;32;20150;-76
2021/01/12 04:34:36;;;;;;;16.37;3.77;;;;;;;;;;4391024;32;20196;-75
2021/01/12 04:37:02;;;;;;;13.73;3.62;;;;;;;;;;4376313;32;20603;-75
2021/01/12 04:39:29;;;;;;;15.77;3.87;;;;;;;;;;4376421;32;20158;-75
2021/01/12 04:41:55;;;;;;;13.45;4.10;;;;;;;;;;4376824;32;20185;-75
2021/01/12 04:44:20;;;;;;;9.55;3.20;;;;;;;;;;4376309;32;20228;-76
2021/01/12 04:46:45;;;;;;;18.50;4.20;;;;;;;;;;4376434;32;20166;-76
2021/01/12 04:49:13;;;;;;;12.47;3.60;;;;;;;;;;4376089;32;20281;-76
2021/01/12 04:51:39;;;;;;;17.20;3.90;;;;;;;;;;4376688;32;20178;-76
2021/01/12 04:54:04;;;;;;;11.23;3.47;;;;;;;;;;4376102;32;20200;-76
2021/01/12 04:56:37;;;;;;;8.18;2.90;;;;;;;;;;4375688;32;20181;-76
2021/01/12 04:59:04;;;;;;;15.73;3.37;;;;;;;;;;4376507;32;20592;-77
2021/01/12 05:01:32;;;;;;;16.48;3.17;;;;;;;;;;4376234;32;20184;-76
2021/01/12 05:04:02;;;;;;;15.18;2.97;;;;;;;;;;4376061;32;20158;-76
2021/01/12 05:06:27;;;;;;;12.77;2.92;;;;;;;;;;4376694;32;20158;-75
2021/01/12 05:08:57;;;;;;;17.85;3.80;;;;;;;;;;4376611;32;20216;-75
2021/01/12 05:11:54;;;;;;;9.00;2.67;;;;;;;;;;4376009;32;20154;-76
2021/01/12 05:14:24;;;;;;;11.82;2.78;;;;;;;;;;4372115;32;20166;-75
2021/01/12 05:16:59;;;;;;;12.18;2.90;;;;;;;;;;4376320;32;20151;-75
2021/01/12 05:19:26;;;;;;;11.43;2.67;;;;;;;;;;4376840;32;20150;-75
2021/01/12 05:21:58;;;;;;;10.60;2.78;;;;;;;;;;4376300;32;20157;-76
2021/01/12 05:24:40;;;;;;;11.85;3.10;;;;;;;;;;4362140;32;20212;-76
2021/01/12 05:27:06;;;;;;;12.07;2.45;;;;;;;;;;4375587;32;20544;-75
2021/01/12 05:29:35;;;;;;;13.07;2.92;;;;;;;;;;4375968;32;20166;-75
2021/01/12 05:32:04;;;;;;;21.90;3.10;;;;;;;;;;4376317;32;20588;-75
2021/01/12 05:34:38;;;;;;;8.10;2.10;;;;;;;;;;4375706;32;20587;-75
2021/01/12 05:37:06;;;;;;;12.75;1.70;;;;;;;;;;4375859;32;20188;-76
2021/01/12 05:39:57;;;;;;;13.07;2.58;;;;;;;;;;4364041;32;20220;-75
2021/01/12 05:42:24;;;;;;;11.60;2.25;;;;;;;;;;4375754;32;20352;-76
2021/01/12 05:44:56;;;;;;;12.55;1.70;;;;;;;;;;4363562;32;20184;-77
2021/01/12 05:47:22;;;;;;;11.52;1.60;;;;;;;;;;4376057;32;20231;-76
2021/01/12 05:49:49;;;;;;;11.30;1.50;;;;;;;;;;4375718;32;20177;-76
2021/01/12 05:52:14;;;;;;;13.10;2.03;;;;;;;;;;4375833;32;20194;-76
2021/01/12 05:54:49;;;;;;;13.80;1.67;;;;;;;;;;4375975;32;20614;-76
2021/01/12 05:57:18;;;;;;;13.73;1.90;;;;;;;;;;4376134;32;20201;-76
2021/01/12 06:00:10;;;;;;;14.80;1.60;;;;;;;;;;4375699;32;20162;-76
2021/01/12 06:02:38;;;;;;;12.63;1.80;;;;;;;;;;4391005;32;20166;-76
2021/01/12 06:05:15;;;;;;;8.02;1.90;;;;;;;;;;4378718;32;20225;-77
2021/01/12 06:07:40;;;;;;;10.93;1.80;;;;;;;;;;4377662;32;20482;-77
2021/01/12 06:10:13;;;;;;;11.80;1.70;;;;;;;;;;4392850;32;20135;-77
2021/01/12 06:12:42;;;;;;;6.47;1.27;;;;;;;;;;4378767;32;20575;-76
2021/01/12 06:15:11;;;;;;;5.65;1.37;;;;;;;;;;4378181;32;20208;-76
2021/01/12 06:17:54;;;;;;;;;;;;;;;;;;;;;
2021/01/12 06:20:22;;;;;;;8.50;1.77;;;;;;;;;;4371255;32;20177;-77
2021/01/12 06:22:55;;;;;;;10.73;1.58;;;;;;;;;;4378039;32;20493;-76
2021/01/12 06:25:20;;;;;;;8.97;1.60;;;;;;;;;;4378095;32;20161;-75
2021/01/12 06:27:47;;;;;;;10.80;2.10;;;;;;;;;;4378258;32;20192;-77
2021/01/12 06:30:13;;;;;;;5.57;1.00;;;;;;;;;;4378498;32;20227;-76
2021/01/12 06:32:40;;;;;;;6.90;1.20;;;;;;;;;;4378734;32;20158;-76
2021/01/12 06:35:25;;;;;;;5.85;1.12;;;;;;;;;;4378350;32;20176;-76
2021/01/12 06:37:55;;;;;;;6.25;1.15;;;;;;;;;;4372661;32;20221;-76
2021/01/12 06:40:23;;;;;;;6.17;1.70;;;;;;;;;;4365581;32;20177;-76
2021/01/12 06:43:00;;;;;;;9.23;1.70;;;;;;;;;;4391583;32;20142;-78
2021/01/12 06:45:35;;;;;;;5.90;1.40;;;;;;;;;;4392244;32;20125;-75
2021/01/12 06:48:00;;;;;;;7.87;1.60;;;;;;;;;;4377865;32;20181;-77
2021/01/12 06:50:26;;;;;;;6.30;1.10;;;;;;;;;;4377563;32;20175;-77
2021/01/12 06:52:51;;;;;;;9.50;1.03;;;;;;;;;;4377526;32;20473;-77
2021/01/12 06:55:19;;;;;;;3.63;1.00;;;;;;;;;;4377274;32;20197;-75
2021/01/12 06:57:49;;;;;;;5.27;0.97;;;;;;;;;;4377929;32;20523;-76
2021/01/12 07:00:15;;;;;;;5.47;1.20;;;;;;;;;;4377506;32;20186;-76
2021/01/12 07:02:40;;;;;;;5.27;1.13;;;;;;;;;;4377483;32;20158;-77
2021/01/12 07:05:10;;;;;;;8.07;1.37;;;;;;;;;;4377424;32;20264;-78
2021/01/12 07:07:55;;;;;;;5.67;1.10;;;;;;;;;;4377310;32;20564;-77
2021/01/12 07:10:21;;;;;;;4.53;1.40;;;;;;;;;;4377698;32;20245;-76
2021/01/12 07:12:47;;;;;;;6.80;1.10;;;;;;;;;;4377583;32;20487;-77
2021/01/12 07:15:19;;;;;;;4.33;0.93;;;;;;;;;;4391423;32;20146;-73
2021/01/12 07:17:46;;;;;;;8.67;1.40;;;;;;;;;;4377206;32;20147;-77
2021/01/12 07:20:25;;;;;;;5.37;1.63;;;;;;;;;;4377569;32;20174;-77
2021/01/12 07:22:51;;;;;;;11.63;1.80;;;;;;;;;;4377756;32;20162;-76
2021/01/12 07:25:18;;;;;;;7.30;2.20;;;;;;;;;;4380808;32;20197;-77
2021/01/12 07:27:44;;;;;;;13.77;2.40;;;;;;;;;;4400476;32;20304;-78
2021/01/12 07:30:21;;;;;;;10.70;2.10;;;;;;;;;;4392366;32;20466;-78
2021/01/12 07:32:54;;;;;;;11.93;2.57;;;;;;;;;;4406896;32;20122;-79
2021/01/12 07:35:20;;;;;;;12.70;2.67;;;;;;;;;;4406522;32;20444;-77
2021/01/12 07:37:48;;;;;;;12.13;2.53;;;;;;;;;;4392098;32;20150;-77
2021/01/12 07:40:14;;;;;;;16.13;3.43;;;;;;;;;;4392089;32;20181;-78
2021/01/12 07:42:53;;;;;;;10.40;2.20;;;;;;;;;;4391955;32;20150;-77
2021/01/12 07:45:23;;;;;;;8.43;2.00;;;;;;;;;;4392188;32;20172;-78
2021/01/12 07:47:55;;;;;;;7.07;1.30;;;;;;;;;;4391598;32;20170;-76
2021/01/12 07:50:20;;;;;;;7.10;2.17;;;;;;;;;;4405827;32;20115;-78
2021/01/12 07:52:46;;;;;;;6.10;1.20;;;;;;;;;;4392091;32;20154;-78
2021/01/12 07:55:12;;;;;;;3.93;1.40;;;;;;;;;;4392058;32;20180;-79
2021/01/12 07:57:37;;;;;;;8.40;1.87;;;;;;;;;;4391707;32;20154;-76
2021/01/12 08:00:12;;;;;;;8.17;2.97;;;;;;;;;;4391516;32;20177;-77
2021/01/12 08:02:39;;;;;;;9.50;3.20;;;;;;;;;;4405718;32;20187;-79
2021/01/12 08:05:07;;;;;;;8.93;2.83;;;;;;;;;;4405944;32;20209;-78
2021/01/12 08:07:34;;;;;;;13.90;3.60;;;;;;;;;;4405718;32;20155;-79
2021/01/12 08:10:01;;;;;;;14.07;3.90;;;;;;;;;;4379435;32;20158;-78
2021/01/12 08:12:34;;;;;;;10.23;4.00;;;;;;;;;;4379739;32;20162;-78
2021/01/12 08:15:32;;;;;;;14.23;4.10;;;;;;;;;;4391301;32;20181;-78
2021/01/12 08:18:19;;;;;;;10.47;2.87;;;;;;;;;;4366651;32;20162;-78
2021/01/12 08:20:53;;;;;;;4.20;2.17;;;;;;;;;;4389665;32;20515;-78
2021/01/12 08:23:18;;;;;;;6.87;1.80;;;;;;;;;;4391933;32;20510;-78
2021/01/12 08:26:00;;;;;;;5.00;1.40;;;;;;;;;;4391071;32;20216;-79
2021/01/12 08:28:28;;;;;;;5.50;1.60;;;;;;;;;;4392275;32;20158;-78
2021/01/12 08:30:54;;;;;;;5.97;1.80;;;;;;;;;;4405461;32;20237;-79
2021/01/12 08:33:43;;;;;;;7.17;1.30;;;;;;;;;;4391519;32;20495;-78
2021/01/12 08:36:10;;;;;;;9.90;1.83;;;;;;;;;;4391468;32;20181;-79
2021/01/12 08:38:50;;;;;;;5.47;1.37;;;;;;;;;;4404738;32;20187;-80
2021/01/12 08:41:15;;;;;;;5.17;1.60;;;;;;;;;;4390923;32;20193;-80
2021/01/12 08:43:44;;;;;;;5.53;1.20;;;;;;;;;;4391768;32;20421;-81
2021/01/12 08:46:26;;;;;;;;;;;;;;;;;;;;;
2021/01/12 08:48:58;;;;;;;10.97;1.67;;;;;;;;;;4400778;32;20181;-79
2021/01/12 08:51:32;;;;;;;8.47;1.50;;;;;;;;;;4405989;32;20152;-80
2021/01/12 08:53:59;;;;;;;11.60;2.17;;;;;;;;;;4404918;32;20135;-78
2021/01/12 08:56:34;;;;;;;6.83;1.93;;;;;;;;;;4404891;32;20165;-79
2021/01/12 08:59:26;;;;;;;7.93;1.50;;;;;;;;;;4405358;32;20170;-80
2021/01/12 09:01:56;;;;;;;7.63;0.90;;;;;;;;;;4405700;32;20133;-80
2021/01/12 09:04:21;;;;;;;6.70;1.00;;;;;;;;;;4391358;32;20180;-79
2021/01/12 09:07:08;;;;;;;4.67;0.93;;;;;;;;;;4391038;32;20486;-79
2021/01/12 09:09:54;;;;;;;8.57;1.17;;;;;;;;;;4405715;32;20123;-79
2021/01/12 09:12:20;;;;;;;5.90;1.47;;;;;;;;;;4391216;32;20165;-79
2021/01/12 09:14:47;;;;;;;3.77;0.67;;;;;;;;;;4404653;32;20191;-82
2021/01/12 09:17:16;;;;;;;1.53;0.70;;;;;;;;;;4395748;32;20233;-81
2021/01/12 09:19:44;;;;;;;3.33;0.80;;;;;;;;;;4391305;32;20154;-81
2021/01/12 09:22:18;;;;;;;6.83;0.93;;;;;;;;;;4404718;32;20197;-80
2021/01/12 09:24:55;;;;;;;4.77;0.70;;;;;;;;;;4392678;32;20153;-79
2021/01/12 09:27:29;;;;;;;6.40;0.73;;;;;;;;;;4378523;32;20187;-79
2021/01/12 09:29:57;;;;;;;6.67;0.80;;;;;;;;;;4390855;32;20223;-79
2021/01/12 09:32:27;;;;;;;7.30;0.97;;;;;;;;;;4391100;32;20229;-79
2021/01/12 09:34:52;;;;;;;5.37;0.93;;;;;;;;;;4374318;32;20187;-80
2021/01/12 09:37:18;;;;;;;7.07;1.00;;;;;;;;;;4392087;32;20158;-82
2021/01/12 09:39:46;;;;;;;7.23;0.80;;;;;;;;;;4394172;32;20610;-79
2021/01/12 09:42:14;;;;;;;6.97;0.90;;;;;;;;;;4394462;32;20188;-79
2021/01/12 09:44:39;;;;;;;9.50;1.10;;;;;;;;;;4393416;32;20180;-76
2021/01/12 09:47:05;;;;;;;7.40;1.40;;;;;;;;;;4393356;32;20170;-78
2021/01/12 09:49:30;;;;;;;6.60;0.60;;;;;;;;;;4381641;32;20158;-76
2021/01/12 09:51:55;;;;;;;3.50;0.90;;;;;;;;;;4393619;32;20155;-77
2021/01/12 09:54:20;;;;;;;3.93;0.73;;;;;;;;;;4393416;32;20236;-76
2021/01/12 09:56:46;;;;;;;10.27;1.10;;;;;;;;;;4393835;32;20192;-78
2021/01/12 09:59:11;;;;;;;7.17;1.37;;;;;;;;;;4394110;32;20180;-78
2021/01/12 10:01:36;;;;;;;4.40;0.63;;;;;;;;;;4394131;32;20192;-78
2021/01/12 10:04:08;;;;;;;7.43;1.17;;;;;;;;;;4393231;32;20223;-77
2021/01/12 10:06:33;;;;;;;8.37;0.90;;;;;;;;;;4407821;32;20167;-77
2021/01/12 10:09:18;;;;;;;;;;;;;;;;;;;;;
2021/01/12 10:11:44;;;;;;;5.27;1.00;;;;;;;;;;4392831;32;20546;-75
2021/01/12 10:14:10;;;;;;;5.67;1.07;;;;;;;;;;4393402;32;20188;-77
2021/01/12 10:16:37;;;;;;;8.30;1.10;;;;;;;;;;4393326;32;20238;-78
2021/01/12 10:19:24;;;;;;;6.33;0.97;;;;;;;;;;4407890;32;20176;-79
2021/01/12 10:21:51;;;;;;;5.77;0.97;;;;;;;;;;4394972;32;20210;-79
2021/01/12 10:24:18;;;;;;;6.40;1.07;;;;;;;;;;4395647;32;20161;-77
2021/01/12 10:26:49;;;;;;;4.87;0.73;;;;;;;;;;4400270;32;20305;-78
2021/01/12 10:29:16;;;;;;;6.03;0.83;;;;;;;;;;4391456;32;20259;-79
2021/01/12 10:31:45;;;;;;;5.93;1.00;;;;;;;;;;4403150;32;20674;-80
2021/01/12 10:34:10;;;;;;;5.47;1.13;;;;;;;;;;4406616;32;20146;-78
2021/01/12 10:36:39;;;;;;;7.67;0.90;;;;;;;;;;4404756;32;20184;-79
2021/01/12 10:39:18;;;;;;;8.17;0.90;;;;;;;;;;4405654;32;20275;-79
2021/01/12 10:41:48;;;;;;;8.83;1.00;;;;;;;;;;4405395;32;20158;-80
2021/01/12 10:44:14;;;;;;;5.37;0.80;;;;;;;;;;4405763;32;20177;-80
2021/01/12 10:46:39;;;;;;;5.67;1.00;;;;;;;;;;4405315;32;20158;-80
2021/01/12 10:49:05;;;;;;;6.70;1.93;;;;;;;;;;4390287;32;20627;-80
2021/01/12 10:51:30;;;;;;;7.37;1.03;;;;;;;;;;4401456;32;20477;-79
2021/01/12 10:53:56;;;;;;;10.03;1.20;;;;;;;;;;4393009;32;20165;-80
2021/01/12 10:56:43;;;;;;;4.60;1.20;;;;;;;;;;4405036;32;20157;-79
2021/01/12 10:59:08;;;;;;;10.97;1.10;;;;;;;;;;4405435;32;20211;-78
2021/01/12 11:01:37;;;;;;;8.63;0.90;;;;;;;;;;4406730;32;20165;-80
2021/01/12 11:04:03;;;;;;;6.73;0.90;;;;;;;;;;4405470;32;20575;-80
2021/01/12 11:06:35;;;;;;;7.17;1.00;;;;;;;;;;4399678;32;20204;-78
2021/01/12 11:09:01;;;;;;;8.47;1.30;;;;;;;;;;4400716;32;20216;-78
2021/01/12 11:11:33;;;;;;;7.20;0.97;;;;;;;;;;4392566;32;20604;-78
2021/01/12 11:14:01;;;;;;;2.30;0.70;;;;;;;;;;4405150;32;20157;-77
2021/01/12 11:16:34;;;;;;;9.83;1.13;;;;;;;;;;4395933;32;20237;-76
2021/01/12 11:19:02;;;;;;;3.50;0.77;;;;;;;;;;4393678;32;20204;-77
2021/01/12 11:21:27;;;;;;;7.43;0.77;;;;;;;;;;4404429;32;20522;-78
2021/01/12 11:23:55;;;;;;;3.80;1.00;;;;;;;;;;4406145;32;20199;-77
2021/01/12 11:26:30;;;;;;;7.73;0.90;;;;;;;;;;4403626;32;20615;-77
2021/01/12 11:28:59;;;;;;;5.63;1.10;;;;;;;;;;4402484;32;20134;-77
2021/01/12 11:31:26;;;;;;;7.43;1.10;;;;;;;;;;4405605;32;20126;-80
2021/01/12 11:33:52;;;;;;;6.27;0.97;;;;;;;;;;4391790;32;20158;-76
2021/01/12 11:36:17;;;;;;;8.70;1.00;;;;;;;;;;4391657;32;20646;-81
2021/01/12 11:38:44;;;;;;;5.93;0.85;;;;;;;;;;4392563;32;20189;-79
2021/01/12 11:41:10;;;;;;;8.63;0.80;;;;;;;;;;4392210;32;20461;-77
2021/01/12 11:43:37;;;;;;;6.30;1.10;;;;;;;;;;4392161;32;20162;-78
2021/01/12 11:46:24;;;;;;;6.90;1.00;;;;;;;;;;4405984;32;20146;-80
2021/01/12 11:48:54;;;;;;;3.27;0.80;;;;;;;;;;4406641;32;20131;-80
2021/01/12 11:51:22;;;;;;;5.22;0.68;;;;;;;;;;4391957;32;20158;-81
2021/01/12 11:53:53;;;;;;;6.07;0.90;;;;;;;;;;4391738;32;20182;-79
2021/01/12 11:56:18;;;;;;;4.18;0.90;;;;;;;;;;4392410;32;20188;-80
2021/01/12 11:58:44;;;;;;;4.87;1.08;;;;;;;;;;4391602;32;20147;-79
2021/01/12 12:01:11;;;;;;;5.30;0.70;;;;;;;;;;4391878;32;20146;-78
2021/01/12 12:03:36;;;;;;;6.18;1.10;;;;;;;;;;4391397;32;20149;-80
2021/01/12 12:06:05;;;;;;;10.75;1.10;;;;;;;;;;4405221;32;20157;-79
2021/01/12 12:08:42;;;;;;;6.85;1.20;;;;;;;;;;4392035;32;20211;-79
2021/01/12 12:11:16;;;;;;;10.23;1.30;;;;;;;;;;4391809;32;20173;-78
2021/01/12 12:13:42;;;;;;;7.22;1.10;;;;;;;;;;4391456;32;20618;-79
2021/01/12 12:16:18;;;;;;;7.85;0.95;;;;;;;;;;4405858;32;20192;-79
2021/01/12 12:18:44;;;;;;;7.82;0.90;;;;;;;;;;4391743;32;20150;-77
2021/01/12 12:21:16;;;;;;;7.00;1.10;;;;;;;;;;4391152;32;20530;-78
2021/01/12 12:23:45;;;;;;;10.13;1.40;;;;;;;;;;4405559;32;20168;-78
2021/01/12 12:26:23;;;;;;;8.40;1.20;;;;;;;;;;4387780;32;20215;-79
2021/01/12 12:28:56;;;;;;;6.87;1.20;;;;;;;;;;4405590;32;20126;-78
2021/01/12 12:31:23;;;;;;;4.33;0.90;;;;;;;;;;4387650;32;20161;-80
2021/01/12 12:33:49;;;;;;;3.58;0.80;;;;;;;;;;4391012;32;20545;-78
2021/01/12 12:36:16;;;;;;;4.80;0.88;;;;;;;;;;4405207;32;20230;-78
2021/01/12 12:38:47;;;;;;;4.30;0.88;;;;;;;;;;4392615;32;20153;-80
2021/01/12 12:41:23;;;;;;;7.35;1.10;;;;;;;;;;4404963;32;20138;-80
2021/01/12 12:43:49;;;;;;;5.43;0.80;;;;;;;;;;4404907;32;20592;-81
2021/01/12 12:46:18;;;;;;;4.10;0.90;;;;;;;;;;4388795;32;20201;-80
2021/01/12 12:49:00;;;;;;;;;;;;;;;;;;;;;
2021/01/12 12:51:38;;;;;;;6.00;0.93;;;;;;;;;;4404237;32;20580;-79
2021/01/12 12:54:05;;;;;;;6.30;0.90;;;;;;;;;;4389277;32;20209;-79
2021/01/12 12:56:35;;;;;;;3.60;0.75;;;;;;;;;;4404545;32;20173;-80
2021/01/12 12:59:10;;;;;;;6.82;1.10;;;;;;;;;;4375904;32;20502;-80
2021/01/12 13:01:38;;;;;;;4.85;0.75;;;;;;;;;;4389564;32;20126;-81
2021/01/12 13:04:04;;;;;;;6.07;0.90;;;;;;;;;;4388410;32;20523;-82
2021/01/12 13:06:35;;;;;;;6.62;0.98;;;;;;;;;;4388425;32;20173;-80
2021/01/12 13:09:14;;;;;;;7.25;0.90;;;;;;;;;;4388589;32;20516;-80
2021/01/12 13:11:43;;;;;;;5.60;1.08;;;;;;;;;;4391786;32;20134;-80
2021/01/12 13:14:10;;;;;;;7.90;0.98;;;;;;;;;;4391318;32;20174;-80
2021/01/12 13:16:40;;;;;;;8.15;1.27;;;;;;;;;;4392661;32;20142;-79
2021/01/12 13:19:10;;;;;;;4.50;0.90;;;;;;;;;;4391445;32;20220;-79
2021/01/12 13:21:37;;;;;;;8.73;1.07;;;;;;;;;;4390588;32;20509;-82
2021/01/12 13:24:03;;;;;;;6.05;0.70;;;;;;;;;;4391024;32;20200;-81
2021/01/12 13:26:33;;;;;;;3.83;0.93;;;;;;;;;;4390989;32;20491;-80
2021/01/12 13:29:01;;;;;;;6.82;1.27;;;;;;;;;;4391855;32;20265;-78
2021/01/12 13:31:27;;;;;;;5.47;1.10;;;;;;;;;;4391642;32;20171;-80
2021/01/12 13:33:53;;;;;;;5.22;1.00;;;;;;;;;;4392442;32;20500;-80
2021/01/12 13:36:22;;;;;;;5.75;1.10;;;;;;;;;;4391090;32;20208;-80
2021/01/12 13:38:51;;;;;;;4.62;1.08;;;;;;;;;;4381291;32;20189;-80
2021/01/12 13:41:16;;;;;;;5.03;1.05;;;;;;;;;;4378722;32;20494;-81
2021/01/12 13:43:42;;;;;;;7.78;1.40;;;;;;;;;;4378459;32;20628;-80
2021/01/12 13:46:08;;;;;;;5.85;1.15;;;;;;;;;;4391966;32;20146;-81
2021/01/12 13:48:37;;;;;;;8.27;0.90;;;;;;;;;;4392738;32;20139;-80
2021/01/12 13:51:05;;;;;;;7.78;1.45;;;;;;;;;;4366881;32;20173;-80
2021/01/12 13:53:49;;;;;;;5.25;1.27;;;;;;;;;;4392458;32;20617;-80
2021/01/12 13:56:22;;;;;;;5.90;1.30;;;;;;;;;;4378240;32;20204;-81
2021/01/12 13:58:48;;;;;;;6.85;1.40;;;;;;;;;;4378981;32;20163;-81
2021/01/12 14:01:19;;;;;;;8.48;1.48;;;;;;;;;;4366000;32;20645;-81
2021/01/12 14:04:02;;;;;;;6.62;1.17;;;;;;;;;;4391139;32;20189;-80
2021/01/12 14:09:14;;;;;;;4.62;0.98;;;;;;;;;;4345126;33;20175;-80
2021/01/12 14:11:51;;;;;;;3.33;1.00;;;;;;;;;;4350804;32;20599;-79
2021/01/12 14:14:20;;;;;;;6.85;1.02;;;;;;;;;;4378458;32;20631;-79
2021/01/12 14:16:58;;;;;;;4.63;0.93;;;;;;;;;;4392189;32;20168;-80
2021/01/12 14:19:27;;;;;;;4.60;0.83;;;;;;;;;;4378532;32;20165;-81
2021/01/12 14:22:01;;;;;;;8.27;0.97;;;;;;;;;;4377708;32;20167;-80
2021/01/12 14:24:30;;;;;;;6.47;1.10;;;;;;;;;;4391922;32;20130;-80
2021/01/12 14:26:55;;;;;;;4.23;0.90;;;;;;;;;;4377767;32;20217;-80
2021/01/12 14:29:23;;;;;;;4.57;0.90;;;;;;;;;;4377868;32;20216;-79
2021/01/12 14:31:53;;;;;;;3.58;0.90;;;;;;;;;;4392017;32;20169;-81
2021/01/12 14:34:21;;;;;;;3.55;1.02;;;;;;;;;;4377741;32;20162;-81
2021/01/12 14:36:48;;;;;;;5.85;1.40;;;;;;;;;;4377697;32;20182;-80
2021/01/12 14:39:54;;;;;;;;;;;;;;;;;;;;;
2021/01/12 14:42:12;;;;;;;11.63;1.40;;;;;;;;;;4388064;32;20458;-81
2021/01/12 14:44:40;;;;;;;7.07;1.00;;;;;;;;;;4386358;32;20165;-80
2021/01/12 14:47:25;;;;;;;6.60;1.60;;;;;;;;;;4411450;32;20547;-81
2021/01/12 14:49:51;;;;;;;4.93;1.33;;;;;;;;;;4384045;32;20611;-81
2021/01/12 14:52:26;;;;;;;8.27;1.20;;;;;;;;;;4391453;32;20173;-80
2021/01/12 14:54:52;;;;;;;10.40;1.67;;;;;;;;;;4404755;32;20169;-80
2021/01/12 14:57:23;;;;;;;11.07;1.37;;;;;;;;;;4407434;32;20162;-81
2021/01/12 14:59:51;;;;;;;8.47;1.50;;;;;;;;;;4422162;32;20122;-79
2021/01/12 15:02:19;;;;;;;4.47;1.27;;;;;;;;;;4407523;32;20583;-80
2021/01/12 15:04:47;;;;;;;11.23;1.40;;;;;;;;;;4404580;32;20282;-82
2021/01/12 15:07:14;;;;;;;8.70;1.33;;;;;;;;;;4404232;32;20211;-81
2021/01/12 15:09:40;;;;;;;11.47;1.60;;;;;;;;;;4395069;32;20587;-80
2021/01/12 15:12:06;;;;;;;17.83;1.90;;;;;;;;;;4407530;32;20154;-80
2021/01/12 15:14:36;;;;;;;10.13;1.40;;;;;;;;;;4407841;32;20160;-79
2021/01/12 15:17:07;;;;;;;12.00;2.10;;;;;;;;;;4407805;32;20203;-79
2021/01/12 15:19:35;;;;;;;9.83;1.63;;;;;;;;;;4403341;32;20524;-79
2021/01/12 15:22:01;;;;;;;11.07;1.97;;;;;;;;;;4407560;32;20158;-79
2021/01/12 15:24:26;;;;;;;11.67;2.03;;;;;;;;;;4394201;32;20188;-79
2021/01/12 15:26:51;;;;;;;9.70;2.40;;;;;;;;;;4404320;32;20177;-79